sensor_id;sensor_type;location;lat;lon;timestamp;pressure;altitude;pressure_sealevel;temperature;humidity
65280;BME280;51878;55.748;48.742;2022-10-31T00:01:09;96425.53;;;1.52;100.00
65280;BME280;51878;55.748;48.742;2022-10-31T00:03:37;96394.28;;;1.13;100.00
65280;BME280;51878;55.748;48.742;2022-10-31T00:06:04;96465.34;;;1.47;100.00
65280;BME280;51878;55.748;48.742;2022-10-31T00:08:31;96446.25;;;1.37;100.00
65280;BME280;51878;55.748;48.742;2022-10-31T00:10:58;96396.09;;;0.99;100.00
65280;BME280;51878;55.748;48.742;2022-10-31T00:13:25;96440.50;;;1.27;100.00
65280;BME280;51878;55.748;48.742;2022-10-31T00:15:52;96322.34;;;0.45;100.00
65280;BME280;51878;55.748;48.742;2022-10-31T00:18:19;96295.88;;;0.30;100.00
65280;BME280;51878;55.748;48.742;2022-10-31T00:20:46;96461.19;;;1.18;100.00
65280;BME280;51878;55.748;48.742;2022-10-31T00:23:13;96417.03;;;0.95;100.00
65280;BME280;51878;55.748;48.742;2022-10-31T00:25:40;96465.13;;;1.22;100.00
65280;BME280;51878;55.748;48.742;2022-10-31T00:28:09;96439.00;;;1.04;100.00
65280;BME280;51878;55.748;48.742;2022-10-31T00:30:38;96452.34;;;1.04;100.00
65280;BME280;51878;55.748;48.742;2022-10-31T00:33:05;96389.25;;;0.70;100.00
65280;BME280;51878;55.748;48.742;2022-10-31T00:35:32;96451.53;;;1.10;100.00
65280;BME280;51878;55.748;48.742;2022-10-31T00:38:00;96408.16;;;0.81;100.00
65280;BME280;51878;55.748;48.742;2022-10-31T00:40:27;96429.34;;;0.96;100.00
65280;BME280;51878;55.748;48.742;2022-10-31T00:42:54;96452.72;;;0.94;100.00
65280;BME280;51878;55.748;48.742;2022-10-31T00:45:21;96408.94;;;0.62;100.00
65280;BME280;51878;55.748;48.742;2022-10-31T00:47:48;96435.84;;;0.74;100.00
65280;BME280;51878;55.748;48.742;2022-10-31T00:50:15;96399.22;;;0.48;100.00
65280;BME280;51878;55.748;48.742;2022-10-31T00:52:42;96433.75;;;0.69;100.00
65280;BME280;51878;55.748;48.742;2022-10-31T00:55:09;96465.94;;;0.68;100.00
65280;BME280;51878;55.748;48.742;2022-10-31T00:57:37;96480.56;;;0.78;100.00
65280;BME280;51878;55.748;48.742;2022-10-31T01:00:05;96479.72;;;0.71;100.00
65280;BME280;51878;55.748;48.742;2022-10-31T01:02:32;96471.44;;;0.59;100.00
65280;BME280;51878;55.748;48.742;2022-10-31T01:04:59;96481.94;;;0.68;100.00
65280;BME280;51878;55.748;48.742;2022-10-31T01:07:26;96443.69;;;0.40;100.00
65280;BME280;51878;55.748;48.742;2022-10-31T01:09:53;96465.06;;;0.54;100.00
65280;BME280;51878;55.748;48.742;2022-10-31T01:12:21;96341.69;;;-0.30;100.00
65280;BME280;51878;55.748;48.742;2022-10-31T01:14:49;96454.72;;;0.37;100.00
65280;BME280;51878;55.748;48.742;2022-10-31T01:17:18;96355.19;;;-0.31;100.00
65280;BME280;51878;55.748;48.742;2022-10-31T01:19:45;96469.50;;;0.40;100.00
65280;BME280;51878;55.748;48.742;2022-10-31T01:22:12;96451.78;;;0.26;100.00
65280;BME280;51878;55.748;48.742;2022-10-31T01:24:39;96409.22;;;-0.03;100.00
65280;BME280;51878;55.748;48.742;2022-10-31T01:27:06;96391.75;;;-0.12;100.00
65280;BME280;51878;55.748;48.742;2022-10-31T01:29:33;96451.78;;;0.26;100.00
65280;BME280;51878;55.748;48.742;2022-10-31T01:32:00;96420.91;;;-0.04;100.00
65280;BME280;51878;55.748;48.742;2022-10-31T01:34:27;96477.13;;;0.15;100.00
65280;BME280;51878;55.748;48.742;2022-10-31T01:36:54;96486.81;;;0.23;100.00
65280;BME280;51878;55.748;48.742;2022-10-31T01:39:21;96467.47;;;0.07;100.00
65280;BME280;51878;55.748;48.742;2022-10-31T01:41:50;96481.19;;;0.11;100.00
65280;BME280;51878;55.748;48.742;2022-10-31T01:47:13;96474.78;;;-0.02;100.00
65280;BME280;51878;55.748;48.742;2022-10-31T01:49:54;96449.22;;;-0.24;100.00
65280;BME280;51878;55.748;48.742;2022-10-31T01:54:59;96322.84;;;-1.13;100.00
65280;BME280;51878;55.748;48.742;2022-10-31T01:57:29;96442.63;;;-0.28;100.00
65280;BME280;51878;55.748;48.742;2022-10-31T02:00:00;96481.34;;;-0.26;100.00
65280;BME280;51878;55.748;48.742;2022-10-31T02:02:31;96472.97;;;-0.23;100.00
65280;BME280;51878;55.748;48.742;2022-10-31T02:05:01;96473.44;;;-0.40;100.00
65280;BME280;51878;55.748;48.742;2022-10-31T02:07:38;96406.31;;;-0.64;100.00
65280;BME280;51878;55.748;48.742;2022-10-31T02:10:06;96429.13;;;-0.55;100.00
65280;BME280;51878;55.748;48.742;2022-10-31T02:12:34;96427.09;;;-0.53;100.00
65280;BME280;51878;55.748;48.742;2022-10-31T02:15:04;96478.88;;;-0.27;100.00
65280;BME280;51878;55.748;48.742;2022-10-31T02:17:32;96470.41;;;-0.37;100.00
65280;BME280;51878;55.748;48.742;2022-10-31T02:33:30;96514.84;;;-0.10;100.00
65280;BME280;51878;55.748;48.742;2022-10-31T02:36:16;96507.91;;;-0.11;100.00
65280;BME280;51878;55.748;48.742;2022-10-31T02:41:27;96483.78;;;-0.52;100.00
65280;BME280;51878;55.748;48.742;2022-10-31T02:44:14;96510.75;;;-0.12;100.00
65280;BME280;51878;55.748;48.742;2022-10-31T02:46:59;96537.38;;;-0.12;100.00
65280;BME280;51878;55.748;48.742;2022-10-31T02:49:37;96527.13;;;-0.15;100.00
65280;BME280;51878;55.748;48.742;2022-10-31T02:52:24;96386.81;;;-0.93;100.00
65280;BME280;51878;55.748;48.742;2022-10-31T02:54:52;96501.56;;;-0.31;100.00
65280;BME280;51878;55.748;48.742;2022-10-31T02:57:31;96454.19;;;-0.64;100.00
65280;BME280;51878;55.748;48.742;2022-10-31T03:00:06;96480.66;;;-0.34;100.00
65280;BME280;51878;55.748;48.742;2022-10-31T03:11:14;96535.63;;;-0.20;100.00
65280;BME280;51878;55.748;48.742;2022-10-31T03:16:15;96559.88;;;-0.15;100.00
65280;BME280;51878;55.748;48.742;2022-10-31T03:18:48;96522.97;;;-0.18;100.00
65280;BME280;51878;55.748;48.742;2022-10-31T03:21:25;96477.88;;;-0.48;100.00
65280;BME280;51878;55.748;48.742;2022-10-31T03:23:54;96449.31;;;-0.60;100.00
65280;BME280;51878;55.748;48.742;2022-10-31T03:26:23;96497.63;;;-0.35;100.00
65280;BME280;51878;55.748;48.742;2022-10-31T03:29:03;96429.75;;;-0.74;100.00
65280;BME280;51878;55.748;48.742;2022-10-31T03:32:00;96505.38;;;-0.40;100.00
65280;BME280;51878;55.748;48.742;2022-10-31T03:34:30;96477.59;;;-0.59;100.00
65280;BME280;51878;55.748;48.742;2022-10-31T03:37:01;96467.88;;;-0.67;100.00
65280;BME280;51878;55.748;48.742;2022-10-31T03:39:29;96456.22;;;-0.88;100.00
65280;BME280;51878;55.748;48.742;2022-10-31T03:42:15;96396.19;;;-1.18;100.00
65280;BME280;51878;55.748;48.742;2022-10-31T03:44:57;96538.81;;;-0.31;100.00
65280;BME280;51878;55.748;48.742;2022-10-31T03:47:26;96529.00;;;-0.52;100.00
65280;BME280;51878;55.748;48.742;2022-10-31T03:49:53;96458.19;;;-0.96;100.00
65280;BME280;51878;55.748;48.742;2022-10-31T03:52:28;96486.69;;;-0.69;100.00
65280;BME280;51878;55.748;48.742;2022-10-31T03:55:06;96553.28;;;-0.40;100.00
65280;BME280;51878;55.748;48.742;2022-10-31T03:57:49;96529.00;;;-0.52;100.00
65280;BME280;51878;55.748;48.742;2022-10-31T04:00:18;96520.16;;;-0.59;100.00
65280;BME280;51878;55.748;48.742;2022-10-31T04:03:07;96513.97;;;-0.81;100.00
65280;BME280;51878;55.748;48.742;2022-10-31T04:05:37;96547.31;;;-0.43;100.00
65280;BME280;51878;55.748;48.742;2022-10-31T04:08:08;96514.88;;;-0.74;100.00
65280;BME280;51878;55.748;48.742;2022-10-31T04:10:37;96554.81;;;-0.53;100.00
65280;BME280;51878;55.748;48.742;2022-10-31T04:13:10;96519.88;;;-0.65;100.00
65280;BME280;51878;55.748;48.742;2022-10-31T04:15:39;96533.63;;;-0.61;100.00
65280;BME280;51878;55.748;48.742;2022-10-31T04:18:08;96559.22;;;-0.38;100.00
65280;BME280;51878;55.748;48.742;2022-10-31T04:20:37;96445.88;;;-1.19;100.00
65280;BME280;51878;55.748;48.742;2022-10-31T04:23:14;96484.91;;;-0.83;100.00
65280;BME280;51878;55.748;48.742;2022-10-31T04:25:43;96533.31;;;-0.51;100.00
65280;BME280;51878;55.748;48.742;2022-10-31T04:28:10;96537.69;;;-0.65;100.00
65280;BME280;51878;55.748;48.742;2022-10-31T04:30:37;96492.50;;;-0.80;100.00
65280;BME280;51878;55.748;48.742;2022-10-31T04:33:04;96481.28;;;-0.97;100.00
65280;BME280;51878;55.748;48.742;2022-10-31T04:35:31;96536.47;;;-0.63;100.00
65280;BME280;51878;55.748;48.742;2022-10-31T04:37:58;96546.22;;;-0.70;100.00
65280;BME280;51878;55.748;48.742;2022-10-31T04:40:25;96486.47;;;-1.10;100.00
65280;BME280;51878;55.748;48.742;2022-10-31T04:42:52;96547.84;;;-0.69;100.00
65280;BME280;51878;55.748;48.742;2022-10-31T04:45:20;96583.69;;;-0.50;100.00
65280;BME280;51878;55.748;48.742;2022-10-31T04:47:47;96533.34;;;-0.88;100.00
65280;BME280;51878;55.748;48.742;2022-10-31T04:50:14;96564.75;;;-0.61;100.00
65280;BME280;51878;55.748;48.742;2022-10-31T04:52:42;96567.00;;;-0.58;100.00
65280;BME280;51878;55.748;48.742;2022-10-31T04:55:10;96529.94;;;-0.81;100.00
65280;BME280;51878;55.748;48.742;2022-10-31T04:57:48;96528.03;;;-0.88;100.00
65280;BME280;51878;55.748;48.742;2022-10-31T05:00:19;96514.44;;;-0.93;100.00
65280;BME280;51878;55.748;48.742;2022-10-31T05:02:54;96462.81;;;-1.20;100.00
65280;BME280;51878;55.748;48.742;2022-10-31T05:05:27;96579.81;;;-0.47;100.00
65280;BME280;51878;55.748;48.742;2022-10-31T05:07:55;96450.91;;;-1.24;100.00
65280;BME280;51878;55.748;48.742;2022-10-31T05:10:25;96447.19;;;-1.30;100.00
65280;BME280;51878;55.748;48.742;2022-10-31T05:12:54;96503.81;;;-0.93;100.00
65280;BME280;51878;55.748;48.742;2022-10-31T05:15:23;96574.25;;;-0.52;100.00
65280;BME280;51878;55.748;48.742;2022-10-31T05:17:51;96455.22;;;-1.23;100.00
65280;BME280;51878;55.748;48.742;2022-10-31T05:20:21;96523.69;;;-0.89;100.00
65280;BME280;51878;55.748;48.742;2022-10-31T05:22:51;96515.94;;;-0.90;100.00
65280;BME280;51878;55.748;48.742;2022-10-31T05:25:20;96590.38;;;-0.54;100.00
65280;BME280;51878;55.748;48.742;2022-10-31T05:27:49;96491.69;;;-1.17;100.00
65280;BME280;51878;55.748;48.742;2022-10-31T05:30:20;96536.31;;;-0.76;100.00
65280;BME280;51878;55.748;48.742;2022-10-31T05:32:49;96618.09;;;-0.48;100.00
65280;BME280;51878;55.748;48.742;2022-10-31T05:35:24;96572.56;;;-0.75;100.00
65280;BME280;51878;55.748;48.742;2022-10-31T05:37:51;96599.16;;;-0.75;100.00
65280;BME280;51878;55.748;48.742;2022-10-31T05:40:20;96477.41;;;-1.46;100.00
65280;BME280;51878;55.748;48.742;2022-10-31T05:42:50;96558.88;;;-1.23;100.00
65280;BME280;51878;55.748;48.742;2022-10-31T05:45:18;96620.63;;;-0.76;100.00
65280;BME280;51878;55.748;48.742;2022-10-31T05:48:00;96541.28;;;-1.24;100.00
65280;BME280;51878;55.748;48.742;2022-10-31T05:50:29;96571.78;;;-1.05;100.00
65280;BME280;51878;55.748;48.742;2022-10-31T05:53:02;96528.03;;;-1.39;100.00
65280;BME280;51878;55.748;48.742;2022-10-31T05:55:30;96535.25;;;-1.62;100.00
65280;BME280;51878;55.748;48.742;2022-10-31T05:57:57;96554.75;;;-1.26;100.00
65280;BME280;51878;55.748;48.742;2022-10-31T06:00:26;96445.78;;;-2.06;100.00
65280;BME280;51878;55.748;48.742;2022-10-31T06:03:03;96529.09;;;-1.48;100.00
65280;BME280;51878;55.748;48.742;2022-10-31T06:05:31;96603.22;;;-1.09;100.00
65280;BME280;51878;55.748;48.742;2022-10-31T06:07:58;96596.06;;;-1.08;100.00
65280;BME280;51878;55.748;48.742;2022-10-31T06:10:27;96621.44;;;-0.91;100.00
65280;BME280;51878;55.748;48.742;2022-10-31T06:12:54;96614.16;;;-1.03;100.00
65280;BME280;51878;55.748;48.742;2022-10-31T06:15:21;96434.25;;;-2.14;100.00
65280;BME280;51878;55.748;48.742;2022-10-31T06:18:04;96626.59;;;-0.89;100.00
65280;BME280;51878;55.748;48.742;2022-10-31T06:20:32;96617.06;;;-0.98;100.00
65280;BME280;51878;55.748;48.742;2022-10-31T06:23:00;96521.50;;;-1.66;100.00
65280;BME280;51878;55.748;48.742;2022-10-31T06:25:28;96622.47;;;-0.92;100.00
65280;BME280;51878;55.748;48.742;2022-10-31T06:27:55;96662.06;;;-0.82;100.00
65280;BME280;51878;55.748;48.742;2022-10-31T06:30:22;96483.38;;;-2.03;100.00
65280;BME280;51878;55.748;48.742;2022-10-31T06:32:52;96535.50;;;-1.57;100.00
65280;BME280;51878;55.748;48.742;2022-10-31T06:35:19;96633.38;;;-0.87;100.00
65280;BME280;51878;55.748;48.742;2022-10-31T06:37:53;96595.34;;;-1.17;100.00
65280;BME280;51878;55.748;48.742;2022-10-31T06:40:21;96641.81;;;-0.83;100.00
65280;BME280;51878;55.748;48.742;2022-10-31T06:42:58;96481.38;;;-2.01;100.00
65280;BME280;51878;55.748;48.742;2022-10-31T06:45:27;96565.91;;;-1.30;100.00
65280;BME280;51878;55.748;48.742;2022-10-31T06:47:55;96648.59;;;-0.80;100.00
65280;BME280;51878;55.748;48.742;2022-10-31T06:50:42;96491.56;;;-1.90;100.00
65280;BME280;51878;55.748;48.742;2022-10-31T06:53:09;96590.22;;;-1.18;100.00
65280;BME280;51878;55.748;48.742;2022-10-31T06:55:41;96597.81;;;-1.15;100.00
65280;BME280;51878;55.748;48.742;2022-10-31T06:58:10;96667.47;;;-0.75;100.00
65280;BME280;51878;55.748;48.742;2022-10-31T07:00:37;96615.22;;;-1.13;100.00
65280;BME280;51878;55.748;48.742;2022-10-31T07:03:12;96617.78;;;-1.19;100.00
65280;BME280;51878;55.748;48.742;2022-10-31T07:05:43;96562.34;;;-1.67;100.00
65280;BME280;51878;55.748;48.742;2022-10-31T07:08:11;96676.75;;;-1.01;100.00
65280;BME280;51878;55.748;48.742;2022-10-31T07:10:41;96434.25;;;-2.52;100.00
65280;BME280;51878;55.748;48.742;2022-10-31T07:13:13;96650.88;;;-1.22;100.00
65280;BME280;51878;55.748;48.742;2022-10-31T07:15:42;96701.41;;;-0.77;100.00
65280;BME280;51878;55.748;48.742;2022-10-31T07:18:11;96662.81;;;-1.03;100.00
65280;BME280;51878;55.748;48.742;2022-10-31T07:20:38;96705.81;;;-0.85;100.00
65280;BME280;51878;55.748;48.742;2022-10-31T07:23:06;96576.28;;;-1.65;100.00
65280;BME280;51878;55.748;48.742;2022-10-31T07:25:34;96532.75;;;-1.94;100.00
65280;BME280;51878;55.748;48.742;2022-10-31T07:28:01;96715.00;;;-0.72;100.00
65280;BME280;51878;55.748;48.742;2022-10-31T07:30:28;96695.63;;;-0.96;100.00
65280;BME280;51878;55.748;48.742;2022-10-31T07:32:59;96615.25;;;-1.66;100.00
65280;BME280;51878;55.748;48.742;2022-10-31T07:35:27;96599.22;;;-1.72;100.00
65280;BME280;51878;55.748;48.742;2022-10-31T07:37:55;96734.31;;;-0.93;100.00
65280;BME280;51878;55.748;48.742;2022-10-31T07:40:23;96653.97;;;-1.33;100.00
65280;BME280;51878;55.748;48.742;2022-10-31T07:42:52;96751.84;;;-0.84;100.00
65280;BME280;51878;55.748;48.742;2022-10-31T07:45:20;96733.88;;;-0.97;100.00
65280;BME280;51878;55.748;48.742;2022-10-31T07:47:50;96624.63;;;-1.70;100.00
65280;BME280;51878;55.748;48.742;2022-10-31T07:50:20;96745.41;;;-1.05;100.00
65280;BME280;51878;55.748;48.742;2022-10-31T07:52:47;96688.53;;;-1.33;100.00
65280;BME280;51878;55.748;48.742;2022-10-31T07:55:14;96751.19;;;-1.01;100.00
65280;BME280;51878;55.748;48.742;2022-10-31T07:57:42;96686.56;;;-1.54;100.00
65280;BME280;51878;55.748;48.742;2022-10-31T08:00:10;96767.75;;;-1.14;100.00
65280;BME280;51878;55.748;48.742;2022-10-31T08:02:37;96782.63;;;-1.05;100.00
65280;BME280;51878;55.748;48.742;2022-10-31T08:05:04;96726.56;;;-1.33;100.00
65280;BME280;51878;55.748;48.742;2022-10-31T08:07:38;96755.06;;;-1.27;100.00
65280;BME280;51878;55.748;48.742;2022-10-31T08:10:05;96784.63;;;-1.07;100.00
65280;BME280;51878;55.748;48.742;2022-10-31T08:12:40;96793.97;;;-1.11;100.00
65280;BME280;51878;55.748;48.742;2022-10-31T08:15:08;96796.81;;;-1.12;100.00
65280;BME280;51878;55.748;48.742;2022-10-31T08:17:36;96790.91;;;-1.22;100.00
65280;BME280;51878;55.748;48.742;2022-10-31T08:20:04;96787.88;;;-1.19;100.00
65280;BME280;51878;55.748;48.742;2022-10-31T08:22:31;96794.16;;;-1.35;100.00
65280;BME280;51878;55.748;48.742;2022-10-31T08:24:59;96807.50;;;-1.43;100.00
65280;BME280;51878;55.748;48.742;2022-10-31T08:27:30;96788.25;;;-1.46;100.00
65280;BME280;51878;55.748;48.742;2022-10-31T08:29:57;96809.94;;;-1.34;100.00
65280;BME280;51878;55.748;48.742;2022-10-31T08:32:25;96747.34;;;-1.82;100.00
65280;BME280;51878;55.748;48.742;2022-10-31T08:34:52;96825.63;;;-1.24;100.00
65280;BME280;51878;55.748;48.742;2022-10-31T08:37:21;96763.00;;;-1.64;100.00
65280;BME280;51878;55.748;48.742;2022-10-31T08:39:48;96776.28;;;-1.64;100.00
65280;BME280;51878;55.748;48.742;2022-10-31T08:42:15;96758.03;;;-1.91;100.00
65280;BME280;51878;55.748;48.742;2022-10-31T08:44:42;96714.34;;;-2.11;100.00
65280;BME280;51878;55.748;48.742;2022-10-31T08:47:09;96779.16;;;-1.74;100.00
65280;BME280;51878;55.748;48.742;2022-10-31T08:49:36;96846.66;;;-1.37;100.00
65280;BME280;51878;55.748;48.742;2022-10-31T08:52:03;96757.97;;;-1.82;100.00
65280;BME280;51878;55.748;48.742;2022-10-31T08:54:30;96856.44;;;-1.30;100.00
65280;BME280;51878;55.748;48.742;2022-10-31T08:56:58;96849.16;;;-1.36;100.00
65280;BME280;51878;55.748;48.742;2022-10-31T08:59:25;96862.56;;;-1.29;100.00
65280;BME280;51878;55.748;48.742;2022-10-31T09:01:52;96772.59;;;-1.87;100.00
65280;BME280;51878;55.748;48.742;2022-10-31T09:04:19;96854.81;;;-1.39;100.00
65280;BME280;51878;55.748;48.742;2022-10-31T09:06:49;96838.72;;;-1.46;100.00
65280;BME280;51878;55.748;48.742;2022-10-31T09:09:36;96843.41;;;-1.48;100.00
65280;BME280;51878;55.748;48.742;2022-10-31T09:12:03;96878.50;;;-1.29;100.00
65280;BME280;51878;55.748;48.742;2022-10-31T09:14:30;96823.06;;;-1.63;100.00
65280;BME280;51878;55.748;48.742;2022-10-31T09:16:57;96808.34;;;-1.74;100.00
65280;BME280;51878;55.748;48.742;2022-10-31T09:19:24;96819.72;;;-1.80;100.00
65280;BME280;51878;55.748;48.742;2022-10-31T09:21:52;96864.84;;;-1.49;100.00
65280;BME280;51878;55.748;48.742;2022-10-31T09:24:20;96865.00;;;-1.51;100.00
65280;BME280;51878;55.748;48.742;2022-10-31T09:26:47;96892.34;;;-1.42;100.00
65280;BME280;51878;55.748;48.742;2022-10-31T09:29:14;96883.59;;;-1.51;100.00
65280;BME280;51878;55.748;48.742;2022-10-31T09:31:41;96813.34;;;-2.02;100.00
65280;BME280;51878;55.748;48.742;2022-10-31T09:34:10;96822.66;;;-2.06;100.00
65280;BME280;51878;55.748;48.742;2022-10-31T09:36:38;96939.69;;;-1.46;100.00
65280;BME280;51878;55.748;48.742;2022-10-31T09:39:05;96889.31;;;-1.62;100.00
65280;BME280;51878;55.748;48.742;2022-10-31T09:44:41;96667.19;;;-3.03;100.00
65280;BME280;51878;55.748;48.742;2022-10-31T09:47:22;96857.69;;;-1.80;100.00
65280;BME280;51878;55.748;48.742;2022-10-31T09:52:30;96934.09;;;-1.51;100.00
65280;BME280;51878;55.748;48.742;2022-10-31T09:55:05;96941.38;;;-1.44;100.00
65280;BME280;51878;55.748;48.742;2022-10-31T09:57:36;96934.22;;;-1.44;100.00
65280;BME280;51878;55.748;48.742;2022-10-31T10:00:05;96931.56;;;-1.44;100.00
65280;BME280;51878;55.748;48.742;2022-10-31T10:02:44;96954.41;;;-1.27;100.00
65280;BME280;51878;55.748;48.742;2022-10-31T10:05:22;96923.75;;;-1.46;100.00
65280;BME280;51878;55.748;48.742;2022-10-31T10:08:07;96910.41;;;-1.60;100.00
65280;BME280;51878;55.748;48.742;2022-10-31T10:19:35;96977.66;;;-1.29;100.00
65280;BME280;51878;55.748;48.742;2022-10-31T10:22:17;96918.03;;;-1.66;100.00
65280;BME280;51878;55.748;48.742;2022-10-31T10:27:44;96932.31;;;-1.58;100.00
65280;BME280;51878;55.748;48.742;2022-10-31T10:30:21;96925.31;;;-1.59;100.00
65280;BME280;51878;55.748;48.742;2022-10-31T10:32:56;96927.97;;;-1.59;100.00
65280;BME280;51878;55.748;48.742;2022-10-31T10:35:25;96998.59;;;-1.26;100.00
65280;BME280;51878;55.748;48.742;2022-10-31T10:38:26;96993.75;;;-1.22;100.00
65280;BME280;51878;55.748;48.742;2022-10-31T10:40:54;96936.63;;;-1.66;100.00
65280;BME280;51878;55.748;48.742;2022-10-31T10:49:50;97018.16;;;-1.18;100.00
65280;BME280;51878;55.748;48.742;2022-10-31T10:57:58;97021.13;;;-1.21;100.00
65280;BME280;51878;55.748;48.742;2022-10-31T11:00:32;97007.91;;;-1.30;100.00
65280;BME280;51878;55.748;48.742;2022-10-31T11:03:02;97012.72;;;-1.33;100.00
65280;BME280;51878;55.748;48.742;2022-10-31T11:05:37;97030.94;;;-1.22;100.00
65280;BME280;51878;55.748;48.742;2022-10-31T11:08:06;96920.47;;;-1.87;100.00
65280;BME280;51878;55.748;48.742;2022-10-31T11:10:35;97007.91;;;-1.30;100.00
65280;BME280;51878;55.748;48.742;2022-10-31T11:16:08;97044.34;;;-1.07;100.00
65280;BME280;51878;55.748;48.742;2022-10-31T11:18:39;96986.50;;;-1.36;100.00
65280;BME280;51878;55.748;48.742;2022-10-31T11:21:27;96933.53;;;-1.77;100.00
65280;BME280;51878;55.748;48.742;2022-10-31T11:26:38;96955.34;;;-1.59;100.00
65280;BME280;51878;55.748;48.742;2022-10-31T11:29:23;96994.69;;;-1.15;100.00
65280;BME280;51878;55.748;48.742;2022-10-31T11:31:53;97041.47;;;-0.97;100.00
65280;BME280;51878;55.748;48.742;2022-10-31T11:34:36;97067.34;;;-0.83;100.00
65280;BME280;51878;55.748;48.742;2022-10-31T11:37:15;97061.38;;;-0.85;100.00
65280;BME280;51878;55.748;48.742;2022-10-31T11:39:45;97004.22;;;-1.20;100.00
65280;BME280;51878;55.748;48.742;2022-10-31T11:42:26;97053.75;;;-0.88;100.00
65280;BME280;51878;55.748;48.742;2022-10-31T11:44:54;97045.78;;;-0.88;100.00
65280;BME280;51878;55.748;48.742;2022-10-31T11:47:28;97067.66;;;-0.86;100.00
65280;BME280;51878;55.748;48.742;2022-10-31T11:49:57;97068.84;;;-0.89;100.00
65280;BME280;51878;55.748;48.742;2022-10-31T11:52:27;97075.19;;;-0.90;100.00
65280;BME280;51878;55.748;48.742;2022-10-31T11:55:02;97007.44;;;-1.41;100.00
65280;BME280;51878;55.748;48.742;2022-10-31T11:57:48;97020.41;;;-1.38;100.00
65280;BME280;51878;55.748;48.742;2022-10-31T12:03:06;97090.00;;;-0.95;100.00
65280;BME280;51878;55.748;48.742;2022-10-31T12:05:38;97016.56;;;-1.36;100.00
65280;BME280;51878;55.748;48.742;2022-10-31T12:08:09;97023.19;;;-1.32;100.00
65280;BME280;51878;55.748;48.742;2022-10-31T12:10:54;96936.41;;;-1.87;100.00
65280;BME280;51878;55.748;48.742;2022-10-31T12:13:30;97107.56;;;-0.86;100.00
65280;BME280;51878;55.748;48.742;2022-10-31T12:16:06;96956.16;;;-1.98;100.00
65280;BME280;51878;55.748;48.742;2022-10-31T12:27:01;97039.81;;;-1.38;100.00
65280;BME280;51878;55.748;48.742;2022-10-31T12:30:11;97119.06;;;-0.86;100.00
65280;BME280;51878;55.748;48.742;2022-10-31T12:49:58;97150.31;;;-0.96;100.00
65280;BME280;51878;55.748;48.742;2022-10-31T12:52:48;97072.22;;;-1.42;100.00
65280;BME280;51878;55.748;48.742;2022-10-31T12:58:17;97023.00;;;-1.78;100.00
65280;BME280;51878;55.748;48.742;2022-10-31T13:00:49;97077.22;;;-1.48;100.00
65280;BME280;51878;55.748;48.742;2022-10-31T13:03:23;97165.94;;;-0.93;100.00
65280;BME280;51878;55.748;48.742;2022-10-31T13:05:56;97163.78;;;-0.97;100.00
65280;BME280;51878;55.748;48.742;2022-10-31T13:08:30;97085.81;;;-1.46;100.00
65280;BME280;51878;55.748;48.742;2022-10-31T13:11:10;97094.31;;;-1.50;100.00
65280;BME280;51878;55.748;48.742;2022-10-31T13:16:18;97171.16;;;-1.08;100.00
65280;BME280;51878;55.748;48.742;2022-10-31T13:27:25;97059.19;;;-1.85;100.00
65280;BME280;51878;55.748;48.742;2022-10-31T13:32:46;97157.72;;;-1.22;100.00
65280;BME280;51878;55.748;48.742;2022-10-31T13:38:21;97117.41;;;-1.51;100.00
65280;BME280;51878;55.748;48.742;2022-10-31T13:44:19;97128.53;;;-1.47;100.00
65280;BME280;51878;55.748;48.742;2022-10-31T13:47:00;97193.75;;;-1.03;100.00
65280;BME280;51878;55.748;48.742;2022-10-31T13:54:38;96964.50;;;-2.58;100.00
65280;BME280;51878;55.748;48.742;2022-10-31T14:03:01;97189.44;;;-1.21;100.00
65280;BME280;51878;55.748;48.742;2022-10-31T14:08:01;97169.00;;;-1.37;100.00
65280;BME280;51878;55.748;48.742;2022-10-31T14:10:36;97143.97;;;-1.42;100.00
65280;BME280;51878;55.748;48.742;2022-10-31T14:16:01;97221.00;;;-1.10;100.00
65280;BME280;51878;55.748;48.742;2022-10-31T14:18:38;97225.28;;;-1.00;100.00
65280;BME280;51878;55.748;48.742;2022-10-31T14:23:53;97148.81;;;-1.54;100.00
65280;BME280;51878;55.748;48.742;2022-10-31T14:26:32;97234.75;;;-1.06;100.00
65280;BME280;51878;55.748;48.742;2022-10-31T14:31:53;97206.06;;;-1.27;100.00
65280;BME280;51878;55.748;48.742;2022-10-31T14:34:32;97226.31;;;-1.10;100.00
65280;BME280;51878;55.748;48.742;2022-10-31T14:45:41;97236.94;;;-1.10;100.00
65280;BME280;51878;55.748;48.742;2022-10-31T14:50:49;97253.22;;;-1.05;100.00
65280;BME280;51878;55.748;48.742;2022-10-31T14:53:26;97232.66;;;-1.19;100.00
65280;BME280;51878;55.748;48.742;2022-10-31T14:55:55;97097.69;;;-1.97;100.00
65280;BME280;51878;55.748;48.742;2022-10-31T14:58:35;97254.22;;;-1.06;100.00
65280;BME280;51878;55.748;48.742;2022-10-31T15:01:04;97157.75;;;-1.63;100.00
65280;BME280;51878;55.748;48.742;2022-10-31T15:03:38;97226.00;;;-1.23;100.00
65280;BME280;51878;55.748;48.742;2022-10-31T15:06:12;97249.41;;;-1.10;100.00
65280;BME280;51878;55.748;48.742;2022-10-31T15:08:51;97189.63;;;-1.47;100.00
65280;BME280;51878;55.748;48.742;2022-10-31T15:11:24;97275.81;;;-1.00;100.00
65280;BME280;51878;55.748;48.742;2022-10-31T15:13:56;97271.47;;;-1.01;100.00
65280;BME280;51878;55.748;48.742;2022-10-31T15:16:35;97212.03;;;-1.33;100.00
65280;BME280;51878;55.748;48.742;2022-10-31T15:19:05;97266.00;;;-1.00;100.00
65280;BME280;51878;55.748;48.742;2022-10-31T15:21:41;97277.00;;;-1.03;100.00
65280;BME280;51878;55.748;48.742;2022-10-31T15:24:12;97204.25;;;-1.43;100.00
65280;BME280;51878;55.748;48.742;2022-10-31T15:26:46;97276.31;;;-1.05;100.00
65280;BME280;51878;55.748;48.742;2022-10-31T15:29:19;97300.91;;;-0.95;100.00
65280;BME280;51878;55.748;48.742;2022-10-31T15:31:57;97221.84;;;-1.34;100.00
65280;BME280;51878;55.748;48.742;2022-10-31T15:34:42;97214.69;;;-1.41;100.00